sensor_id;sensor_type;location;lat;lon;timestamp;temperature;humidity
20428;DHT22;10373;49.768;18.302;2023-06-14T00:01:46;12.10;99.90
20428;DHT22;10373;49.768;18.302;2023-06-14T00:04:13;12.10;99.90
20428;DHT22;10373;49.768;18.302;2023-06-14T00:06:39;12.10;99.90
20428;DHT22;10373;49.768;18.302;2023-06-14T00:09:07;12.20;99.90
20428;DHT22;10373;49.768;18.302;2023-06-14T00:11:34;12.30;99.90
20428;DHT22;10373;49.768;18.302;2023-06-14T00:13:59;12.30;99.90
20428;DHT22;10373;49.768;18.302;2023-06-14T00:16:25;12.40;99.90
20428;DHT22;10373;49.768;18.302;2023-06-14T00:18:51;12.30;99.90
20428;DHT22;10373;49.768;18.302;2023-06-14T00:21:19;12.10;99.90
20428;DHT22;10373;49.768;18.302;2023-06-14T00:23:45;12.00;99.90
20428;DHT22;10373;49.768;18.302;2023-06-14T00:26:11;12.00;99.90
20428;DHT22;10373;49.768;18.302;2023-06-14T00:28:36;12.00;99.90
20428;DHT22;10373;49.768;18.302;2023-06-14T00:31:02;12.10;99.90
20428;DHT22;10373;49.768;18.302;2023-06-14T00:33:28;12.10;99.90
20428;DHT22;10373;49.768;18.302;2023-06-14T00:35:53;12.10;99.90
20428;DHT22;10373;49.768;18.302;2023-06-14T00:38:20;12.10;99.90
20428;DHT22;10373;49.768;18.302;2023-06-14T00:40:46;12.20;99.90
20428;DHT22;10373;49.768;18.302;2023-06-14T00:43:12;12.20;99.90
20428;DHT22;10373;49.768;18.302;2023-06-14T00:45:37;12.20;99.90
20428;DHT22;10373;49.768;18.302;2023-06-14T00:48:04;12.20;99.90
20428;DHT22;10373;49.768;18.302;2023-06-14T00:50:31;12.30;99.90
20428;DHT22;10373;49.768;18.302;2023-06-14T00:52:59;12.20;99.90
20428;DHT22;10373;49.768;18.302;2023-06-14T00:55:26;12.20;99.90
20428;DHT22;10373;49.768;18.302;2023-06-14T00:57:53;12.10;99.90
20428;DHT22;10373;49.768;18.302;2023-06-14T01:00:18;11.80;99.90
20428;DHT22;10373;49.768;18.302;2023-06-14T01:02:44;11.50;99.90
20428;DHT22;10373;49.768;18.302;2023-06-14T01:05:10;11.20;99.90
20428;DHT22;10373;49.768;18.302;2023-06-14T01:10:53;11.30;99.90
20428;DHT22;10373;49.768;18.302;2023-06-14T01:15:57;11.50;99.90
20428;DHT22;10373;49.768;18.302;2023-06-14T01:18:23;11.60;99.90
20428;DHT22;10373;49.768;18.302;2023-06-14T01:20:50;11.70;99.90
20428;DHT22;10373;49.768;18.302;2023-06-14T01:23:20;11.70;99.90
20428;DHT22;10373;49.768;18.302;2023-06-14T01:25:46;11.70;99.90
20428;DHT22;10373;49.768;18.302;2023-06-14T01:28:15;11.70;99.90
20428;DHT22;10373;49.768;18.302;2023-06-14T01:30:44;11.80;99.90
20428;DHT22;10373;49.768;18.302;2023-06-14T01:33:21;11.80;99.90
20428;DHT22;10373;49.768;18.302;2023-06-14T01:35:49;11.80;99.90
20428;DHT22;10373;49.768;18.302;2023-06-14T01:38:17;11.80;99.90
20428;DHT22;10373;49.768;18.302;2023-06-14T01:40:45;11.70;99.90
20428;DHT22;10373;49.768;18.302;2023-06-14T01:43:13;11.60;99.90
20428;DHT22;10373;49.768;18.302;2023-06-14T01:45:41;11.70;99.90
20428;DHT22;10373;49.768;18.302;2023-06-14T01:48:07;11.70;99.90
20428;DHT22;10373;49.768;18.302;2023-06-14T01:50:34;11.70;99.90
20428;DHT22;10373;49.768;18.302;2023-06-14T01:52:59;11.70;99.90
20428;DHT22;10373;49.768;18.302;2023-06-14T01:55:25;11.70;99.90
20428;DHT22;10373;49.768;18.302;2023-06-14T01:57:52;11.60;99.90
20428;DHT22;10373;49.768;18.302;2023-06-14T02:00:18;11.50;99.90
20428;DHT22;10373;49.768;18.302;2023-06-14T02:02:45;11.30;99.90
20428;DHT22;10373;49.768;18.302;2023-06-14T02:05:11;11.20;99.90
20428;DHT22;10373;49.768;18.302;2023-06-14T02:07:37;11.20;99.90
20428;DHT22;10373;49.768;18.302;2023-06-14T02:10:06;11.30;99.90
20428;DHT22;10373;49.768;18.302;2023-06-14T02:12:32;11.40;99.90
20428;DHT22;10373;49.768;18.302;2023-06-14T02:14:58;11.50;99.90
20428;DHT22;10373;49.768;18.302;2023-06-14T02:17:24;11.60;99.90
20428;DHT22;10373;49.768;18.302;2023-06-14T02:19:50;11.60;99.90
20428;DHT22;10373;49.768;18.302;2023-06-14T02:22:16;11.70;99.90
20428;DHT22;10373;49.768;18.302;2023-06-14T02:24:42;11.60;99.90
20428;DHT22;10373;49.768;18.302;2023-06-14T02:27:08;11.40;99.90
20428;DHT22;10373;49.768;18.302;2023-06-14T02:29:36;11.50;99.90
20428;DHT22;10373;49.768;18.302;2023-06-14T02:32:01;11.50;99.90
20428;DHT22;10373;49.768;18.302;2023-06-14T02:34:27;11.30;99.90
20428;DHT22;10373;49.768;18.302;2023-06-14T02:36:53;11.20;99.90
20428;DHT22;10373;49.768;18.302;2023-06-14T02:39:20;11.30;99.90
20428;DHT22;10373;49.768;18.302;2023-06-14T02:41:49;11.60;99.90
20428;DHT22;10373;49.768;18.302;2023-06-14T02:44:16;11.80;99.90
20428;DHT22;10373;49.768;18.302;2023-06-14T02:46:44;11.90;99.90
20428;DHT22;10373;49.768;18.302;2023-06-14T02:49:11;12.00;99.90
20428;DHT22;10373;49.768;18.302;2023-06-14T02:51:37;12.10;99.90
20428;DHT22;10373;49.768;18.302;2023-06-14T02:54:02;12.00;99.90
20428;DHT22;10373;49.768;18.302;2023-06-14T02:56:29;11.90;99.90
20428;DHT22;10373;49.768;18.302;2023-06-14T02:58:55;12.10;99.90
20428;DHT22;10373;49.768;18.302;2023-06-14T03:01:20;12.20;99.90
20428;DHT22;10373;49.768;18.302;2023-06-14T03:03:47;12.30;99.90
20428;DHT22;10373;49.768;18.302;2023-06-14T03:06:12;12.30;99.90
20428;DHT22;10373;49.768;18.302;2023-06-14T03:08:40;12.50;99.90
20428;DHT22;10373;49.768;18.302;2023-06-14T03:11:07;12.60;99.90
20428;DHT22;10373;49.768;18.302;2023-06-14T03:13:34;12.60;99.90
20428;DHT22;10373;49.768;18.302;2023-06-14T03:16:00;12.50;99.90
20428;DHT22;10373;49.768;18.302;2023-06-14T03:18:31;12.60;99.90
20428;DHT22;10373;49.768;18.302;2023-06-14T03:21:04;12.70;99.90
20428;DHT22;10373;49.768;18.302;2023-06-14T03:23:30;12.70;99.90
20428;DHT22;10373;49.768;18.302;2023-06-14T03:25:56;12.70;99.90
20428;DHT22;10373;49.768;18.302;2023-06-14T03:28:22;12.70;99.90
20428;DHT22;10373;49.768;18.302;2023-06-14T03:30:48;12.70;99.90
20428;DHT22;10373;49.768;18.302;2023-06-14T03:33:13;12.80;99.90
20428;DHT22;10373;49.768;18.302;2023-06-14T03:35:40;12.80;99.90
20428;DHT22;10373;49.768;18.302;2023-06-14T03:38:06;12.70;99.90
20428;DHT22;10373;49.768;18.302;2023-06-14T03:40:32;12.60;99.90
20428;DHT22;10373;49.768;18.302;2023-06-14T03:42:58;12.60;99.90
20428;DHT22;10373;49.768;18.302;2023-06-14T03:45:23;12.40;99.90
20428;DHT22;10373;49.768;18.302;2023-06-14T03:47:49;12.50;99.90
20428;DHT22;10373;49.768;18.302;2023-06-14T03:50:16;12.50;99.90
20428;DHT22;10373;49.768;18.302;2023-06-14T03:52:42;12.40;99.90
20428;DHT22;10373;49.768;18.302;2023-06-14T03:55:09;12.30;99.90
20428;DHT22;10373;49.768;18.302;2023-06-14T03:57:35;12.30;99.90
20428;DHT22;10373;49.768;18.302;2023-06-14T04:00:01;12.30;99.90
20428;DHT22;10373;49.768;18.302;2023-06-14T04:02:26;12.30;99.90
20428;DHT22;10373;49.768;18.302;2023-06-14T04:04:54;12.50;99.90
20428;DHT22;10373;49.768;18.302;2023-06-14T04:07:20;12.60;99.90
20428;DHT22;10373;49.768;18.302;2023-06-14T04:09:46;12.50;99.90
20428;DHT22;10373;49.768;18.302;2023-06-14T04:12:12;12.40;99.90
20428;DHT22;10373;49.768;18.302;2023-06-14T04:14:39;12.30;99.90
20428;DHT22;10373;49.768;18.302;2023-06-14T04:17:06;12.10;99.90
20428;DHT22;10373;49.768;18.302;2023-06-14T04:19:31;12.20;99.90
20428;DHT22;10373;49.768;18.302;2023-06-14T04:21:58;12.30;99.90
20428;DHT22;10373;49.768;18.302;2023-06-14T04:24:27;12.30;99.90
20428;DHT22;10373;49.768;18.302;2023-06-14T04:27:00;12.40;99.90
20428;DHT22;10373;49.768;18.302;2023-06-14T04:29:29;12.30;99.90
20428;DHT22;10373;49.768;18.302;2023-06-14T04:31:55;12.40;99.90
20428;DHT22;10373;49.768;18.302;2023-06-14T04:34:25;12.40;99.90
20428;DHT22;10373;49.768;18.302;2023-06-14T04:36:55;12.70;99.90
20428;DHT22;10373;49.768;18.302;2023-06-14T04:39:22;12.80;99.90
20428;DHT22;10373;49.768;18.302;2023-06-14T04:41:48;12.90;99.90
20428;DHT22;10373;49.768;18.302;2023-06-14T04:44:17;12.80;99.90
20428;DHT22;10373;49.768;18.302;2023-06-14T04:46:43;12.80;99.90
20428;DHT22;10373;49.768;18.302;2023-06-14T04:49:13;12.80;99.90
20428;DHT22;10373;49.768;18.302;2023-06-14T04:51:41;12.90;99.90
20428;DHT22;10373;49.768;18.302;2023-06-14T04:54:08;13.00;99.90
20428;DHT22;10373;49.768;18.302;2023-06-14T04:56:35;13.00;99.90
20428;DHT22;10373;49.768;18.302;2023-06-14T04:59:03;13.10;99.90
20428;DHT22;10373;49.768;18.302;2023-06-14T05:01:32;13.10;99.90
20428;DHT22;10373;49.768;18.302;2023-06-14T05:03:59;13.00;99.90
20428;DHT22;10373;49.768;18.302;2023-06-14T05:06:24;12.90;99.90
20428;DHT22;10373;49.768;18.302;2023-06-14T05:08:51;12.80;99.90
20428;DHT22;10373;49.768;18.302;2023-06-14T05:11:17;12.80;99.90
20428;DHT22;10373;49.768;18.302;2023-06-14T05:13:43;12.80;99.90
20428;DHT22;10373;49.768;18.302;2023-06-14T05:16:12;12.80;99.90
20428;DHT22;10373;49.768;18.302;2023-06-14T05:18:38;12.70;99.90
20428;DHT22;10373;49.768;18.302;2023-06-14T05:21:06;12.90;99.90
20428;DHT22;10373;49.768;18.302;2023-06-14T05:23:31;13.00;99.90
20428;DHT22;10373;49.768;18.302;2023-06-14T05:25:57;13.10;99.90
20428;DHT22;10373;49.768;18.302;2023-06-14T05:28:23;13.30;99.90
20428;DHT22;10373;49.768;18.302;2023-06-14T05:30:49;13.30;99.90
20428;DHT22;10373;49.768;18.302;2023-06-14T05:33:15;13.30;99.90
20428;DHT22;10373;49.768;18.302;2023-06-14T05:35:41;13.30;99.90
20428;DHT22;10373;49.768;18.302;2023-06-14T05:38:06;13.20;99.90
20428;DHT22;10373;49.768;18.302;2023-06-14T05:40:33;13.30;99.90
20428;DHT22;10373;49.768;18.302;2023-06-14T05:42:58;13.20;99.90
20428;DHT22;10373;49.768;18.302;2023-06-14T05:45:24;13.00;99.90
20428;DHT22;10373;49.768;18.302;2023-06-14T05:47:50;13.10;99.90
20428;DHT22;10373;49.768;18.302;2023-06-14T05:50:16;13.20;99.90
20428;DHT22;10373;49.768;18.302;2023-06-14T05:52:41;13.20;99.90
20428;DHT22;10373;49.768;18.302;2023-06-14T05:55:07;13.20;99.90
20428;DHT22;10373;49.768;18.302;2023-06-14T05:57:33;13.30;99.90
20428;DHT22;10373;49.768;18.302;2023-06-14T05:59:59;13.40;99.90
20428;DHT22;10373;49.768;18.302;2023-06-14T06:02:24;13.30;99.90
20428;DHT22;10373;49.768;18.302;2023-06-14T06:04:50;13.30;99.90
20428;DHT22;10373;49.768;18.302;2023-06-14T06:07:16;13.20;99.90
20428;DHT22;10373;49.768;18.302;2023-06-14T06:09:41;13.10;99.90
20428;DHT22;10373;49.768;18.302;2023-06-14T06:12:07;13.20;99.90
20428;DHT22;10373;49.768;18.302;2023-06-14T06:14:33;13.30;99.90
20428;DHT22;10373;49.768;18.302;2023-06-14T06:16:59;13.40;99.90
20428;DHT22;10373;49.768;18.302;2023-06-14T06:19:24;13.40;99.90
20428;DHT22;10373;49.768;18.302;2023-06-14T06:21:51;13.50;99.90
20428;DHT22;10373;49.768;18.302;2023-06-14T06:24:16;13.40;99.90
20428;DHT22;10373;49.768;18.302;2023-06-14T06:26:42;13.40;99.90
20428;DHT22;10373;49.768;18.302;2023-06-14T06:29:08;13.60;99.90
20428;DHT22;10373;49.768;18.302;2023-06-14T06:31:33;13.60;99.90
20428;DHT22;10373;49.768;18.302;2023-06-14T06:34:00;13.70;99.90
20428;DHT22;10373;49.768;18.302;2023-06-14T06:36:25;13.80;99.90
20428;DHT22;10373;49.768;18.302;2023-06-14T06:38:51;13.80;99.90
20428;DHT22;10373;49.768;18.302;2023-06-14T06:41:18;13.80;99.90
20428;DHT22;10373;49.768;18.302;2023-06-14T06:43:44;13.80;99.90
20428;DHT22;10373;49.768;18.302;2023-06-14T06:46:10;13.80;99.90
20428;DHT22;10373;49.768;18.302;2023-06-14T06:48:35;13.80;99.90
20428;DHT22;10373;49.768;18.302;2023-06-14T06:51:01;13.80;99.90
20428;DHT22;10373;49.768;18.302;2023-06-14T06:53:27;14.00;99.90
20428;DHT22;10373;49.768;18.302;2023-06-14T06:55:52;14.00;99.90
20428;DHT22;10373;49.768;18.302;2023-06-14T06:58:18;14.00;99.90
20428;DHT22;10373;49.768;18.302;2023-06-14T07:00:43;14.00;99.90
20428;DHT22;10373;49.768;18.302;2023-06-14T07:03:09;14.10;99.90
20428;DHT22;10373;49.768;18.302;2023-06-14T07:05:35;14.20;99.90
20428;DHT22;10373;49.768;18.302;2023-06-14T07:08:00;14.30;99.90
20428;DHT22;10373;49.768;18.302;2023-06-14T07:10:26;14.40;99.90
20428;DHT22;10373;49.768;18.302;2023-06-14T07:12:51;14.30;99.90
20428;DHT22;10373;49.768;18.302;2023-06-14T07:15:18;14.30;99.90
20428;DHT22;10373;49.768;18.302;2023-06-14T07:17:44;14.40;99.90
20428;DHT22;10373;49.768;18.302;2023-06-14T07:20:11;14.40;99.90
20428;DHT22;10373;49.768;18.302;2023-06-14T07:22:41;14.50;99.90
20428;DHT22;10373;49.768;18.302;2023-06-14T07:25:09;14.50;99.90
20428;DHT22;10373;49.768;18.302;2023-06-14T07:27:37;14.50;99.90
20428;DHT22;10373;49.768;18.302;2023-06-14T07:30:03;14.40;99.90
20428;DHT22;10373;49.768;18.302;2023-06-14T07:32:29;14.50;99.90
20428;DHT22;10373;49.768;18.302;2023-06-14T07:34:55;14.50;99.90
20428;DHT22;10373;49.768;18.302;2023-06-14T07:37:21;14.70;99.90
20428;DHT22;10373;49.768;18.302;2023-06-14T07:39:46;14.90;99.90
20428;DHT22;10373;49.768;18.302;2023-06-14T07:42:12;15.00;98.90
20428;DHT22;10373;49.768;18.302;2023-06-14T07:44:38;15.20;99.90
20428;DHT22;10373;49.768;18.302;2023-06-14T07:47:04;15.40;99.40
20428;DHT22;10373;49.768;18.302;2023-06-14T07:49:30;15.40;97.50
20428;DHT22;10373;49.768;18.302;2023-06-14T07:51:55;15.20;97.10
20428;DHT22;10373;49.768;18.302;2023-06-14T07:54:21;15.10;98.90
20428;DHT22;10373;49.768;18.302;2023-06-14T07:56:51;15.00;99.10
20428;DHT22;10373;49.768;18.302;2023-06-14T07:59:17;14.90;99.90
20428;DHT22;10373;49.768;18.302;2023-06-14T08:01:42;15.00;99.90
20428;DHT22;10373;49.768;18.302;2023-06-14T08:04:13;15.10;99.90
20428;DHT22;10373;49.768;18.302;2023-06-14T08:06:39;14.90;99.90
20428;DHT22;10373;49.768;18.302;2023-06-14T08:09:04;15.20;99.90
20428;DHT22;10373;49.768;18.302;2023-06-14T08:11:31;15.50;99.90
20428;DHT22;10373;49.768;18.302;2023-06-14T08:13:57;15.70;99.90
20428;DHT22;10373;49.768;18.302;2023-06-14T08:16:22;15.80;98.10
20428;DHT22;10373;49.768;18.302;2023-06-14T08:18:48;16.10;97.30
20428;DHT22;10373;49.768;18.302;2023-06-14T08:21:14;16.20;95.90
20428;DHT22;10373;49.768;18.302;2023-06-14T08:23:40;16.20;95.20
20428;DHT22;10373;49.768;18.302;2023-06-14T08:26:08;16.20;94.00
20428;DHT22;10373;49.768;18.302;2023-06-14T08:28:34;16.20;95.30
20428;DHT22;10373;49.768;18.302;2023-06-14T08:31:00;16.30;95.40
20428;DHT22;10373;49.768;18.302;2023-06-14T08:33:25;16.10;92.80
20428;DHT22;10373;49.768;18.302;2023-06-14T08:35:51;16.30;95.40
20428;DHT22;10373;49.768;18.302;2023-06-14T08:38:17;16.80;94.50
20428;DHT22;10373;49.768;18.302;2023-06-14T08:40:43;16.90;93.60
20428;DHT22;10373;49.768;18.302;2023-06-14T08:43:10;17.40;92.20
20428;DHT22;10373;49.768;18.302;2023-06-14T08:45:36;17.90;91.20
20428;DHT22;10373;49.768;18.302;2023-06-14T08:48:02;18.30;88.70
20428;DHT22;10373;49.768;18.302;2023-06-14T08:50:29;18.70;84.10
20428;DHT22;10373;49.768;18.302;2023-06-14T08:52:57;19.00;78.60
20428;DHT22;10373;49.768;18.302;2023-06-14T08:55:26;19.10;78.20
20428;DHT22;10373;49.768;18.302;2023-06-14T08:57:54;18.80;78.30
20428;DHT22;10373;49.768;18.302;2023-06-14T09:00:23;18.60;77.20
20428;DHT22;10373;49.768;18.302;2023-06-14T09:02:50;18.20;77.90
20428;DHT22;10373;49.768;18.302;2023-06-14T09:05:26;17.90;78.10
20428;DHT22;10373;49.768;18.302;2023-06-14T09:07:53;17.80;79.90
20428;DHT22;10373;49.768;18.302;2023-06-14T09:10:22;17.70;80.40
20428;DHT22;10373;49.768;18.302;2023-06-14T09:12:48;17.50;80.80
20428;DHT22;10373;49.768;18.302;2023-06-14T09:15:14;17.60;79.40
20428;DHT22;10373;49.768;18.302;2023-06-14T09:17:40;17.70;80.00
20428;DHT22;10373;49.768;18.302;2023-06-14T09:20:07;17.80;80.00
20428;DHT22;10373;49.768;18.302;2023-06-14T09:22:37;17.70;76.40
20428;DHT22;10373;49.768;18.302;2023-06-14T09:25:03;17.70;76.60
20428;DHT22;10373;49.768;18.302;2023-06-14T09:27:30;17.80;77.00
20428;DHT22;10373;49.768;18.302;2023-06-14T09:29:56;18.20;77.80
20428;DHT22;10373;49.768;18.302;2023-06-14T09:32:22;18.50;75.10
20428;DHT22;10373;49.768;18.302;2023-06-14T09:34:48;18.90;73.20
20428;DHT22;10373;49.768;18.302;2023-06-14T09:37:29;19.10;72.90
20428;DHT22;10373;49.768;18.302;2023-06-14T09:39:56;19.30;71.70
20428;DHT22;10373;49.768;18.302;2023-06-14T09:42:22;19.80;70.50
20428;DHT22;10373;49.768;18.302;2023-06-14T09:44:51;20.30;69.10
20428;DHT22;10373;49.768;18.302;2023-06-14T09:47:18;20.60;66.70
20428;DHT22;10373;49.768;18.302;2023-06-14T09:49:44;20.50;64.70
20428;DHT22;10373;49.768;18.302;2023-06-14T09:52:28;20.20;65.10
20428;DHT22;10373;49.768;18.302;2023-06-14T09:54:56;19.80;66.40
20428;DHT22;10373;49.768;18.302;2023-06-14T09:57:25;19.50;68.20
20428;DHT22;10373;49.768;18.302;2023-06-14T09:59:58;19.60;69.10
20428;DHT22;10373;49.768;18.302;2023-06-14T10:02:31;19.80;68.70
20428;DHT22;10373;49.768;18.302;2023-06-14T10:05:10;19.80;68.10
20428;DHT22;10373;49.768;18.302;2023-06-14T10:07:52;19.90;67.50
20428;DHT22;10373;49.768;18.302;2023-06-14T10:10:19;20.20;65.70
20428;DHT22;10373;49.768;18.302;2023-06-14T10:12:45;20.30;64.80
20428;DHT22;10373;49.768;18.302;2023-06-14T10:15:17;20.30;65.60
20428;DHT22;10373;49.768;18.302;2023-06-14T10:17:56;20.40;66.20
20428;DHT22;10373;49.768;18.302;2023-06-14T10:20:30;20.30;66.70
20428;DHT22;10373;49.768;18.302;2023-06-14T10:23:03;19.60;67.50
20428;DHT22;10373;49.768;18.302;2023-06-14T10:25:32;19.40;68.80
20428;DHT22;10373;49.768;18.302;2023-06-14T10:28:14;19.30;69.50
20428;DHT22;10373;49.768;18.302;2023-06-14T10:31:11;19.40;68.30
20428;DHT22;10373;49.768;18.302;2023-06-14T10:33:50;19.70;68.70
20428;DHT22;10373;49.768;18.302;2023-06-14T10:39:08;20.50;67.80
20428;DHT22;10373;49.768;18.302;2023-06-14T10:41:37;21.00;65.80
20428;DHT22;10373;49.768;18.302;2023-06-14T10:46:56;21.10;60.90
20428;DHT22;10373;49.768;18.302;2023-06-14T10:49:42;20.80;61.00
20428;DHT22;10373;49.768;18.302;2023-06-14T10:52:12;21.00;61.90
20428;DHT22;10373;49.768;18.302;2023-06-14T10:55:08;20.60;60.80
20428;DHT22;10373;49.768;18.302;2023-06-14T10:57:42;20.40;62.40
20428;DHT22;10373;49.768;18.302;2023-06-14T11:00:10;20.40;62.10
20428;DHT22;10373;49.768;18.302;2023-06-14T11:02:51;20.20;62.10
20428;DHT22;10373;49.768;18.302;2023-06-14T11:05:28;20.10;63.10
20428;DHT22;10373;49.768;18.302;2023-06-14T11:10:39;21.00;61.80
20428;DHT22;10373;49.768;18.302;2023-06-14T11:13:07;21.00;60.30
20428;DHT22;10373;49.768;18.302;2023-06-14T11:15:35;21.10;60.10
20428;DHT22;10373;49.768;18.302;2023-06-14T11:18:05;20.90;59.50
20428;DHT22;10373;49.768;18.302;2023-06-14T11:20:32;21.40;59.90
20428;DHT22;10373;49.768;18.302;2023-06-14T11:22:58;22.20;59.40
20428;DHT22;10373;49.768;18.302;2023-06-14T11:25:25;22.80;57.30
20428;DHT22;10373;49.768;18.302;2023-06-14T11:27:52;22.80;56.40
20428;DHT22;10373;49.768;18.302;2023-06-14T11:30:18;22.20;57.00
20428;DHT22;10373;49.768;18.302;2023-06-14T11:32:52;21.60;57.60
20428;DHT22;10373;49.768;18.302;2023-06-14T11:35:19;21.60;58.10
20428;DHT22;10373;49.768;18.302;2023-06-14T11:37:48;22.30;57.30
20428;DHT22;10373;49.768;18.302;2023-06-14T11:40:14;22.40;57.60
20428;DHT22;10373;49.768;18.302;2023-06-14T11:42:41;21.60;58.50
20428;DHT22;10373;49.768;18.302;2023-06-14T11:45:08;20.80;59.90
20428;DHT22;10373;49.768;18.302;2023-06-14T11:47:38;20.20;62.00
20428;DHT22;10373;49.768;18.302;2023-06-14T11:50:06;19.80;63.70
20428;DHT22;10373;49.768;18.302;2023-06-14T11:52:33;19.50;64.40
20428;DHT22;10373;49.768;18.302;2023-06-14T11:54:59;19.50;63.70
20428;DHT22;10373;49.768;18.302;2023-06-14T11:57:25;19.90;62.10
20428;DHT22;10373;49.768;18.302;2023-06-14T11:59:51;20.50;61.10
20428;DHT22;10373;49.768;18.302;2023-06-14T12:02:19;20.70;60.40
20428;DHT22;10373;49.768;18.302;2023-06-14T12:04:47;20.50;60.80
20428;DHT22;10373;49.768;18.302;2023-06-14T12:07:17;20.10;61.60
20428;DHT22;10373;49.768;18.302;2023-06-14T12:12:24;19.40;66.00
20428;DHT22;10373;49.768;18.302;2023-06-14T12:14:53;20.00;64.50
20428;DHT22;10373;49.768;18.302;2023-06-14T12:17:19;21.10;61.70
20428;DHT22;10373;49.768;18.302;2023-06-14T12:19:46;21.90;58.80
20428;DHT22;10373;49.768;18.302;2023-06-14T12:22:15;22.40;57.30
20428;DHT22;10373;49.768;18.302;2023-06-14T12:24:43;22.90;56.60
20428;DHT22;10373;49.768;18.302;2023-06-14T12:27:10;22.70;55.50
20428;DHT22;10373;49.768;18.302;2023-06-14T12:29:43;23.10;55.30
20428;DHT22;10373;49.768;18.302;2023-06-14T12:32:09;23.80;54.90
20428;DHT22;10373;49.768;18.302;2023-06-14T12:34:35;24.00;53.90
20428;DHT22;10373;49.768;18.302;2023-06-14T12:37:01;23.40;52.90
20428;DHT22;10373;49.768;18.302;2023-06-14T12:39:30;22.80;52.60
20428;DHT22;10373;49.768;18.302;2023-06-14T12:41:57;22.90;53.30
20428;DHT22;10373;49.768;18.302;2023-06-14T12:44:23;23.30;53.50
20428;DHT22;10373;49.768;18.302;2023-06-14T12:46:49;23.00;53.00
20428;DHT22;10373;49.768;18.302;2023-06-14T12:49:16;22.80;53.30
20428;DHT22;10373;49.768;18.302;2023-06-14T12:51:42;23.30;53.70
20428;DHT22;10373;49.768;18.302;2023-06-14T12:54:08;23.80;53.60
20428;DHT22;10373;49.768;18.302;2023-06-14T12:56:34;23.60;53.10
20428;DHT22;10373;49.768;18.302;2023-06-14T12:59:00;23.00;52.00
20428;DHT22;10373;49.768;18.302;2023-06-14T13:01:26;22.40;52.50
20428;DHT22;10373;49.768;18.302;2023-06-14T13:03:52;22.10;53.80
20428;DHT22;10373;49.768;18.302;2023-06-14T13:06:21;22.10;54.70
20428;DHT22;10373;49.768;18.302;2023-06-14T13:08:50;22.60;54.60
20428;DHT22;10373;49.768;18.302;2023-06-14T13:11:16;23.10;54.00
20428;DHT22;10373;49.768;18.302;2023-06-14T13:13:42;23.60;54.00
20428;DHT22;10373;49.768;18.302;2023-06-14T13:16:07;23.50;53.20
20428;DHT22;10373;49.768;18.302;2023-06-14T13:18:33;22.80;53.00
20428;DHT22;10373;49.768;18.302;2023-06-14T13:20:59;22.30;54.30
20428;DHT22;10373;49.768;18.302;2023-06-14T13:23:24;21.90;54.50
20428;DHT22;10373;49.768;18.302;2023-06-14T13:25:50;21.50;54.80
20428;DHT22;10373;49.768;18.302;2023-06-14T13:28:16;21.20;55.70
20428;DHT22;10373;49.768;18.302;2023-06-14T13:30:42;21.10;56.50
20428;DHT22;10373;49.768;18.302;2023-06-14T13:33:08;21.60;56.50
20428;DHT22;10373;49.768;18.302;2023-06-14T13:35:34;22.50;55.20
20428;DHT22;10373;49.768;18.302;2023-06-14T13:38:00;22.50;53.10
20428;DHT22;10373;49.768;18.302;2023-06-14T13:40:26;22.10;52.60
20428;DHT22;10373;49.768;18.302;2023-06-14T13:42:51;21.50;53.80
20428;DHT22;10373;49.768;18.302;2023-06-14T13:45:17;20.90;55.80
20428;DHT22;10373;49.768;18.302;2023-06-14T13:47:43;20.50;57.50
20428;DHT22;10373;49.768;18.302;2023-06-14T13:50:09;20.10;59.10
20428;DHT22;10373;49.768;18.302;2023-06-14T13:52:35;20.10;60.60
20428;DHT22;10373;49.768;18.302;2023-06-14T13:55:01;20.00;61.60
20428;DHT22;10373;49.768;18.302;2023-06-14T13:57:27;19.90;61.30
20428;DHT22;10373;49.768;18.302;2023-06-14T13:59:53;19.80;60.90
20428;DHT22;10373;49.768;18.302;2023-06-14T14:02:21;20.00;61.40
20428;DHT22;10373;49.768;18.302;2023-06-14T14:04:46;20.40;60.30
20428;DHT22;10373;49.768;18.302;2023-06-14T14:07:18;20.60;60.00
20428;DHT22;10373;49.768;18.302;2023-06-14T14:09:46;20.40;60.20
20428;DHT22;10373;49.768;18.302;2023-06-14T14:12:13;20.50;60.40
20428;DHT22;10373;49.768;18.302;2023-06-14T14:14:39;20.80;59.90
20428;DHT22;10373;49.768;18.302;2023-06-14T14:17:06;21.50;59.40
20428;DHT22;10373;49.768;18.302;2023-06-14T14:19:40;22.00;58.20
20428;DHT22;10373;49.768;18.302;2023-06-14T14:22:06;22.40;57.70
20428;DHT22;10373;49.768;18.302;2023-06-14T14:24:32;22.60;56.50
20428;DHT22;10373;49.768;18.302;2023-06-14T14:26:57;23.10;56.50
20428;DHT22;10373;49.768;18.302;2023-06-14T14:29:25;23.40;55.40
20428;DHT22;10373;49.768;18.302;2023-06-14T14:31:54;23.40;54.50
20428;DHT22;10373;49.768;18.302;2023-06-14T14:34:20;23.20;53.70
20428;DHT22;10373;49.768;18.302;2023-06-14T14:36:46;22.50;53.30
20428;DHT22;10373;49.768;18.302;2023-06-14T14:39:11;22.00;54.60
20428;DHT22;10373;49.768;18.302;2023-06-14T14:41:37;21.50;55.40
20428;DHT22;10373;49.768;18.302;2023-06-14T14:44:04;21.00;56.40
20428;DHT22;10373;49.768;18.302;2023-06-14T14:46:29;21.00;57.30
20428;DHT22;10373;49.768;18.302;2023-06-14T14:48:55;21.10;57.60
20428;DHT22;10373;49.768;18.302;2023-06-14T14:51:21;21.10;58.40
20428;DHT22;10373;49.768;18.302;2023-06-14T14:53:46;20.60;58.70
20428;DHT22;10373;49.768;18.302;2023-06-14T14:56:12;20.40;59.40
20428;DHT22;10373;49.768;18.302;2023-06-14T14:58:38;20.10;59.90
20428;DHT22;10373;49.768;18.302;2023-06-14T15:01:04;20.00;61.10
20428;DHT22;10373;49.768;18.302;2023-06-14T15:03:31;19.90;61.00
20428;DHT22;10373;49.768;18.302;2023-06-14T15:05:57;19.90;61.10
20428;DHT22;10373;49.768;18.302;2023-06-14T15:08:22;19.80;61.00
20428;DHT22;10373;49.768;18.302;2023-06-14T15:10:48;19.80;61.20
20428;DHT22;10373;49.768;18.302;2023-06-14T15:13:14;19.80;61.40
20428;DHT22;10373;49.768;18.302;2023-06-14T15:15:40;19.80;61.00
20428;DHT22;10373;49.768;18.302;2023-06-14T15:18:05;19.90;61.30
20428;DHT22;10373;49.768;18.302;2023-06-14T15:20:31;19.80;61.30
20428;DHT22;10373;49.768;18.302;2023-06-14T15:22:57;19.80;61.80
20428;DHT22;10373;49.768;18.302;2023-06-14T15:25:28;19.70;60.50
20428;DHT22;10373;49.768;18.302;2023-06-14T15:27:54;19.40;60.90
20428;DHT22;10373;49.768;18.302;2023-06-14T15:30:21;19.30;61.80
20428;DHT22;10373;49.768;18.302;2023-06-14T15:32:47;19.30;62.30